sensor_id;sensor_type;location;lat;lon;timestamp;P1;durP1;ratioP1;P2;durP2;ratioP2
25563;SDS011;13453;47.994;8.790;2022-10-15T00:01:06;0.10;;;0.10;;
25563;SDS011;13453;47.994;8.790;2022-10-15T00:11:20;0.10;;;0.10;;
25563;SDS011;13453;47.994;8.790;2022-10-15T00:21:25;0.28;;;0.10;;
25563;SDS011;13453;47.994;8.790;2022-10-15T00:31:28;0.45;;;0.10;;
25563;SDS011;13453;47.994;8.790;2022-10-15T00:41:35;0.10;;;0.10;;
25563;SDS011;13453;47.994;8.790;2022-10-15T00:51:41;0.10;;;0.10;;
25563;SDS011;13453;47.994;8.790;2022-10-15T01:01:46;0.00;;;0.00;;
25563;SDS011;13453;47.994;8.790;2022-10-15T01:11:49;0.00;;;0.00;;
25563;SDS011;13453;47.994;8.790;2022-10-15T01:21:57;0.00;;;0.00;;
25563;SDS011;13453;47.994;8.790;2022-10-15T01:42:33;0.30;;;0.10;;
25563;SDS011;13453;47.994;8.790;2022-10-15T01:52:40;0.00;;;0.00;;
25563;SDS011;13453;47.994;8.790;2022-10-15T02:02:45;0.10;;;0.00;;
25563;SDS011;13453;47.994;8.790;2022-10-15T02:12:54;0.10;;;0.10;;
25563;SDS011;13453;47.994;8.790;2022-10-15T02:23:08;0.03;;;0.00;;
25563;SDS011;13453;47.994;8.790;2022-10-15T02:33:17;0.10;;;0.10;;
25563;SDS011;13453;47.994;8.790;2022-10-15T02:43:21;0.00;;;0.00;;
25563;SDS011;13453;47.994;8.790;2022-10-15T02:53:24;0.13;;;0.00;;
25563;SDS011;13453;47.994;8.790;2022-10-15T03:03:26;0.03;;;0.00;;
25563;SDS011;13453;47.994;8.790;2022-10-15T03:13:28;0.10;;;0.00;;
25563;SDS011;13453;47.994;8.790;2022-10-15T03:23:30;0.10;;;0.00;;
25563;SDS011;13453;47.994;8.790;2022-10-15T03:33:43;0.10;;;0.00;;
25563;SDS011;13453;47.994;8.790;2022-10-15T03:43:45;0.10;;;0.08;;
25563;SDS011;13453;47.994;8.790;2022-10-15T03:53:48;0.10;;;0.00;;
25563;SDS011;13453;47.994;8.790;2022-10-15T04:03:51;0.00;;;0.00;;
25563;SDS011;13453;47.994;8.790;2022-10-15T04:13:55;0.10;;;0.10;;
25563;SDS011;13453;47.994;8.790;2022-10-15T04:23:57;0.00;;;0.00;;
25563;SDS011;13453;47.994;8.790;2022-10-15T04:34:11;0.15;;;0.10;;
25563;SDS011;13453;47.994;8.790;2022-10-15T04:44:13;0.08;;;0.00;;
25563;SDS011;13453;47.994;8.790;2022-10-15T04:54:21;0.52;;;0.00;;
25563;SDS011;13453;47.994;8.790;2022-10-15T05:04:30;0.08;;;0.00;;
25563;SDS011;13453;47.994;8.790;2022-10-15T05:14:32;0.63;;;0.00;;
25563;SDS011;13453;47.994;8.790;2022-10-15T05:24:40;0.10;;;0.00;;
25563;SDS011;13453;47.994;8.790;2022-10-15T05:34:58;0.10;;;0.10;;
25563;SDS011;13453;47.994;8.790;2022-10-15T05:45:11;1.55;;;0.10;;
25563;SDS011;13453;47.994;8.790;2022-10-15T05:55:15;0.30;;;0.10;;
25563;SDS011;13453;47.994;8.790;2022-10-15T06:05:16;1.20;;;0.50;;
25563;SDS011;13453;47.994;8.790;2022-10-15T06:15:19;3.67;;;0.85;;
25563;SDS011;13453;47.994;8.790;2022-10-15T06:25:21;11.82;;;2.20;;
25563;SDS011;13453;47.994;8.790;2022-10-15T06:35:23;11.73;;;3.25;;
25563;SDS011;13453;47.994;8.790;2022-10-15T06:45:27;22.40;;;4.35;;
25563;SDS011;13453;47.994;8.790;2022-10-15T06:55:28;26.27;;;4.43;;
25563;SDS011;13453;47.994;8.790;2022-10-15T07:05:31;22.35;;;5.13;;
25563;SDS011;13453;47.994;8.790;2022-10-15T07:15:33;19.63;;;5.03;;
25563;SDS011;13453;47.994;8.790;2022-10-15T07:25:35;19.23;;;4.35;;
25563;SDS011;13453;47.994;8.790;2022-10-15T07:35:37;16.15;;;3.42;;
25563;SDS011;13453;47.994;8.790;2022-10-15T07:45:39;14.27;;;3.78;;
25563;SDS011;13453;47.994;8.790;2022-10-15T07:55:41;15.55;;;3.72;;
25563;SDS011;13453;47.994;8.790;2022-10-15T08:05:42;12.65;;;3.40;;
25563;SDS011;13453;47.994;8.790;2022-10-15T08:15:44;9.07;;;3.28;;
25563;SDS011;13453;47.994;8.790;2022-10-15T08:25:46;10.60;;;2.45;;
25563;SDS011;13453;47.994;8.790;2022-10-15T08:35:48;8.57;;;2.38;;
25563;SDS011;13453;47.994;8.790;2022-10-15T08:45:54;7.22;;;2.10;;
25563;SDS011;13453;47.994;8.790;2022-10-15T08:56:01;7.85;;;1.95;;
25563;SDS011;13453;47.994;8.790;2022-10-15T09:06:12;5.80;;;1.52;;
25563;SDS011;13453;47.994;8.790;2022-10-15T09:16:21;6.35;;;1.75;;
25563;SDS011;13453;47.994;8.790;2022-10-15T09:37:05;4.15;;;1.30;;
25563;SDS011;13453;47.994;8.790;2022-10-15T09:47:22;4.00;;;1.23;;
25563;SDS011;13453;47.994;8.790;2022-10-15T09:57:33;2.85;;;1.10;;
25563;SDS011;13453;47.994;8.790;2022-10-15T10:07:36;1.95;;;0.90;;
25563;SDS011;13453;47.994;8.790;2022-10-15T10:17:38;1.58;;;0.73;;
25563;SDS011;13453;47.994;8.790;2022-10-15T10:27:54;2.15;;;0.73;;
25563;SDS011;13453;47.994;8.790;2022-10-15T10:38:24;2.15;;;0.68;;
25563;SDS011;13453;47.994;8.790;2022-10-15T10:58:41;1.17;;;0.50;;
25563;SDS011;13453;47.994;8.790;2022-10-15T11:18:59;3.40;;;0.75;;
25563;SDS011;13453;47.994;8.790;2022-10-15T11:39:34;1.45;;;0.57;;
25563;SDS011;13453;47.994;8.790;2022-10-15T12:20:31;0.52;;;0.40;;
25563;SDS011;13453;47.994;8.790;2022-10-15T12:30:33;0.50;;;0.20;;
25563;SDS011;13453;47.994;8.790;2022-10-15T12:40:38;1.20;;;0.40;;
25563;SDS011;13453;47.994;8.790;2022-10-15T12:50:40;0.40;;;0.20;;
25563;SDS011;13453;47.994;8.790;2022-10-15T13:00:42;0.20;;;0.10;;
25563;SDS011;13453;47.994;8.790;2022-10-15T13:10:51;0.45;;;0.30;;
25563;SDS011;13453;47.994;8.790;2022-10-15T13:20:59;0.17;;;0.13;;
25563;SDS011;13453;47.994;8.790;2022-10-15T13:31:03;0.65;;;0.20;;
25563;SDS011;13453;47.994;8.790;2022-10-15T13:41:07;2.30;;;0.20;;
25563;SDS011;13453;47.994;8.790;2022-10-15T13:51:10;0.55;;;0.22;;
25563;SDS011;13453;47.994;8.790;2022-10-15T14:01:17;0.28;;;0.20;;
25563;SDS011;13453;47.994;8.790;2022-10-15T14:11:21;0.43;;;0.20;;
25563;SDS011;13453;47.994;8.790;2022-10-15T14:21:24;0.57;;;0.47;;
25563;SDS011;13453;47.994;8.790;2022-10-15T14:31:36;0.68;;;0.30;;
25563;SDS011;13453;47.994;8.790;2022-10-15T14:41:40;0.32;;;0.30;;
25563;SDS011;13453;47.994;8.790;2022-10-15T14:52:05;0.20;;;0.20;;
25563;SDS011;13453;47.994;8.790;2022-10-15T15:02:13;0.68;;;0.40;;
25563;SDS011;13453;47.994;8.790;2022-10-15T15:12:18;0.82;;;0.20;;
25563;SDS011;13453;47.994;8.790;2022-10-15T15:22:29;0.22;;;0.20;;
25563;SDS011;13453;47.994;8.790;2022-10-15T15:32:32;0.20;;;0.20;;
25563;SDS011;13453;47.994;8.790;2022-10-15T15:42:34;0.40;;;0.30;;
25563;SDS011;13453;47.994;8.790;2022-10-15T15:52:36;0.70;;;0.38;;
25563;SDS011;13453;47.994;8.790;2022-10-15T16:02:41;0.60;;;0.38;;
25563;SDS011;13453;47.994;8.790;2022-10-15T16:12:44;1.42;;;0.40;;
25563;SDS011;13453;47.994;8.790;2022-10-15T16:22:49;0.70;;;0.40;;
25563;SDS011;13453;47.994;8.790;2022-10-15T16:32:52;0.60;;;0.32;;
25563;SDS011;13453;47.994;8.790;2022-10-15T16:42:54;0.57;;;0.30;;
25563;SDS011;13453;47.994;8.790;2022-10-15T16:52:56;0.32;;;0.30;;
25563;SDS011;13453;47.994;8.790;2022-10-15T17:02:57;0.17;;;0.17;;
25563;SDS011;13453;47.994;8.790;2022-10-15T17:13:03;0.20;;;0.20;;
25563;SDS011;13453;47.994;8.790;2022-10-15T17:23:04;1.63;;;0.30;;
25563;SDS011;13453;47.994;8.790;2022-10-15T17:33:06;3.00;;;0.90;;
25563;SDS011;13453;47.994;8.790;2022-10-15T17:43:08;6.35;;;2.13;;
25563;SDS011;13453;47.994;8.790;2022-10-15T17:53:10;8.75;;;2.45;;
25563;SDS011;13453;47.994;8.790;2022-10-15T18:03:13;9.40;;;2.65;;
25563;SDS011;13453;47.994;8.790;2022-10-15T18:13:15;8.18;;;2.75;;
25563;SDS011;13453;47.994;8.790;2022-10-15T18:23:18;6.60;;;2.15;;
25563;SDS011;13453;47.994;8.790;2022-10-15T18:33:20;7.45;;;2.00;;
25563;SDS011;13453;47.994;8.790;2022-10-15T18:43:22;6.03;;;1.70;;
25563;SDS011;13453;47.994;8.790;2022-10-15T18:53:24;5.15;;;1.80;;
25563;SDS011;13453;47.994;8.790;2022-10-15T19:03:30;5.47;;;1.20;;
25563;SDS011;13453;47.994;8.790;2022-10-15T19:13:32;3.78;;;1.38;;
25563;SDS011;13453;47.994;8.790;2022-10-15T19:23:35;3.97;;;1.35;;
25563;SDS011;13453;47.994;8.790;2022-10-15T19:33:37;3.40;;;1.08;;
25563;SDS011;13453;47.994;8.790;2022-10-15T19:43:39;5.07;;;1.30;;
25563;SDS011;13453;47.994;8.790;2022-10-15T19:53:41;3.42;;;0.90;;
25563;SDS011;13453;47.994;8.790;2022-10-15T20:03:43;2.50;;;0.85;;
25563;SDS011;13453;47.994;8.790;2022-10-15T20:13:45;2.88;;;0.85;;
25563;SDS011;13453;47.994;8.790;2022-10-15T20:23:47;2.33;;;0.80;;
25563;SDS011;13453;47.994;8.790;2022-10-15T20:33:49;2.58;;;0.88;;
25563;SDS011;13453;47.994;8.790;2022-10-15T20:43:52;1.92;;;0.82;;
25563;SDS011;13453;47.994;8.790;2022-10-15T20:53:56;2.50;;;0.68;;
25563;SDS011;13453;47.994;8.790;2022-10-15T21:03:59;1.52;;;0.63;;
25563;SDS011;13453;47.994;8.790;2022-10-15T21:14:01;1.45;;;0.70;;
25563;SDS011;13453;47.994;8.790;2022-10-15T21:24:03;0.80;;;0.40;;
25563;SDS011;13453;47.994;8.790;2022-10-15T21:34:05;0.57;;;0.50;;
25563;SDS011;13453;47.994;8.790;2022-10-15T21:44:07;1.13;;;0.60;;
25563;SDS011;13453;47.994;8.790;2022-10-15T21:54:09;1.20;;;0.70;;
25563;SDS011;13453;47.994;8.790;2022-10-15T22:04:11;1.15;;;0.60;;
25563;SDS011;13453;47.994;8.790;2022-10-15T22:14:13;1.20;;;0.60;;
25563;SDS011;13453;47.994;8.790;2022-10-15T22:24:16;0.63;;;0.40;;
25563;SDS011;13453;47.994;8.790;2022-10-15T22:34:19;0.82;;;0.60;;
25563;SDS011;13453;47.994;8.790;2022-10-15T22:44:22;0.73;;;0.50;;
25563;SDS011;13453;47.994;8.790;2022-10-15T22:54:24;0.70;;;0.40;;
25563;SDS011;13453;47.994;8.790;2022-10-15T23:04:26;0.73;;;0.50;;
25563;SDS011;13453;47.994;8.790;2022-10-15T23:14:28;0.80;;;0.50;;
25563;SDS011;13453;47.994;8.790;2022-10-15T23:24:30;0.80;;;0.60;;
25563;SDS011;13453;47.994;8.790;2022-10-15T23:34:32;0.75;;;0.60;;
25563;SDS011;13453;47.994;8.790;2022-10-15T23:44:33;0.98;;;0.50;;
25563;SDS011;13453;47.994;8.790;2022-10-15T23:54:35;1.02;;;0.57;;
